createdAt,value
2023-01-19T00:00:42.242Z,99788.16
2023-01-19T00:01:47.391Z,99783.00
2023-01-19T00:03:02.097Z,99789.19
2023-01-19T00:04:24.589Z,99784.75
2023-01-19T00:05:46.299Z,99787.50
2023-01-19T00:07:08.853Z,99786.66
2023-01-19T00:08:30.416Z,99794.50
2023-01-19T00:09:52.906Z,99784.88
2023-01-19T00:11:17.348Z,99787.38
2023-01-19T00:12:40.012Z,99786.25
2023-01-19T00:14:01.530Z,99793.84
2023-01-19T00:15:23.973Z,99796.16
2023-01-19T00:16:47.819Z,99788.22
2023-01-19T00:18:11.204Z,99793.25
2023-01-19T00:19:33.901Z,99788.84
2023-01-19T00:20:56.407Z,99798.47
2023-01-19T00:22:18.895Z,99789.91
2023-01-19T00:23:42.343Z,99792.59
2023-01-19T00:25:05.192Z,99789.25
2023-01-19T00:26:27.679Z,99787.69
2023-01-19T00:27:50.210Z,99798.22
2023-01-19T00:29:13.628Z,99791.41
2023-01-19T00:30:35.142Z,99790.66
2023-01-19T00:31:58.982Z,99787.31
2023-01-19T00:33:20.524Z,99787.50
2023-01-19T00:34:49.432Z,99791.03
2023-01-19T00:36:12.210Z,99787.69
2023-01-19T00:37:33.790Z,99790.38
2023-01-19T00:38:56.348Z,99800.00
2023-01-19T00:40:18.278Z,99798.44
2023-01-19T00:41:58.404Z,99808.06
2023-01-19T00:43:20.861Z,99803.78
2023-01-19T00:44:42.630Z,99803.84
2023-01-19T00:46:05.181Z,99801.25
2023-01-19T00:47:28.066Z,99801.34
2023-01-19T00:48:50.542Z,99805.75
2023-01-19T00:50:14.137Z,99800.59
2023-01-19T00:51:36.753Z,99800.59
2023-01-19T00:53:01.033Z,99804.16
2023-01-19T00:54:23.831Z,99804.16
2023-01-19T00:55:45.414Z,99796.41
2023-01-19T00:57:07.922Z,99804.25
2023-01-19T00:58:30.433Z,99808.56
2023-01-19T00:59:51.929Z,99808.44
2023-01-19T01:01:14.774Z,99810.97
2023-01-19T01:02:38.152Z,99797.06
2023-01-19T01:04:00.720Z,99797.69
2023-01-19T01:05:23.254Z,99802.94
2023-01-19T01:06:44.921Z,99804.63
2023-01-19T01:08:07.465Z,99798.53
2023-01-19T01:09:29.404Z,99801.06
2023-01-19T01:10:52.408Z,99800.13
2023-01-19T01:12:13.924Z,99801.16
2023-01-19T01:13:36.510Z,99803.78
2023-01-19T01:14:58.047Z,99798.53
2023-01-19T01:16:20.560Z,99800.22
2023-01-19T01:17:47.531Z,99795.94
2023-01-19T01:19:10.021Z,99801.06
2023-01-19T01:20:34.679Z,99801.69
2023-01-19T01:21:57.183Z,99801.50
2023-01-19T01:23:22.566Z,99805.72
2023-01-19T01:24:45.139Z,99803.75
2023-01-19T01:26:06.747Z,99799.28
2023-01-19T01:27:29.257Z,99810.38
2023-01-19T01:28:51.730Z,99810.19
2023-01-19T01:30:14.422Z,99811.78
2023-01-19T01:31:36.992Z,99808.97
2023-01-19T01:33:01.250Z,99810.44
2023-01-19T01:34:23.940Z,99811.19
2023-01-19T01:35:45.483Z,99814.44
2023-01-19T01:37:08.805Z,99806.50
2023-01-19T01:38:30.389Z,99811.56
2023-01-19T01:39:52.897Z,99810.59
2023-01-19T01:41:15.554Z,99811.44
2023-01-19T01:42:40.511Z,99801.81
2023-01-19T01:44:06.217Z,99809.66
2023-01-19T01:45:31.940Z,99801.06
2023-01-19T01:46:54.529Z,99802.72
2023-01-19T01:48:25.439Z,99803.78
2023-01-19T01:49:48.036Z,99804.72
2023-01-19T01:51:25.924Z,99809.00
2023-01-19T01:53:07.620Z,99811.63
2023-01-19T01:54:32.132Z,99816.78
2023-01-19T01:55:53.660Z,99807.16
2023-01-19T01:57:16.265Z,99809.66
2023-01-19T01:58:38.700Z,99815.63
2023-01-19T02:00:01.371Z,99820.78
2023-01-19T02:01:41.451Z,99818.09
2023-01-19T02:03:03.626Z,99818.91
2023-01-19T02:04:27.795Z,99822.47
2023-01-19T02:05:51.048Z,99816.47
2023-01-19T02:07:35.588Z,99815.75
2023-01-19T02:09:21.626Z,99819.41
2023-01-19T02:11:03.008Z,99815.28
2023-01-19T02:12:43.477Z,99812.03
2023-01-19T02:14:07.431Z,99815.69
2023-01-19T02:15:29.908Z,99809.81
2023-01-19T02:16:53.019Z,99813.47
2023-01-19T02:18:15.121Z,99810.94
2023-01-19T02:19:43.546Z,99809.22
2023-01-19T02:21:11.453Z,99810.19
2023-01-19T02:22:41.516Z,99812.91
2023-01-19T02:24:07.425Z,99811.25
2023-01-19T02:25:29.417Z,99802.63
2023-01-19T02:26:52.957Z,99806.16
2023-01-19T02:28:15.139Z,99807.00
2023-01-19T02:29:37.764Z,99809.75
2023-01-19T02:31:00.297Z,99801.97
2023-01-19T02:32:21.873Z,99808.16
2023-01-19T02:33:45.062Z,99805.53
2023-01-19T02:35:07.240Z,99805.63
2023-01-19T02:36:33.474Z,99808.25
2023-01-19T02:37:55.141Z,99806.47
2023-01-19T02:39:21.253Z,99816.94
2023-01-19T02:40:45.716Z,99800.47
2023-01-19T02:42:11.501Z,99809.28
2023-01-19T02:43:35.659Z,99799.84
2023-01-19T02:44:57.410Z,99795.53
2023-01-19T02:46:20.019Z,99797.31
2023-01-19T02:47:44.738Z,99799.09
2023-01-19T02:49:07.297Z,99800.97
2023-01-19T02:50:45.849Z,99792.16
2023-01-19T02:52:16.067Z,99805.25
2023-01-19T02:53:56.904Z,99798.34
2023-01-19T02:55:28.796Z,99793.97
2023-01-19T02:57:11.579Z,99794.97
2023-01-19T02:58:37.800Z,99795.81
2023-01-19T03:00:15.572Z,99791.44
2023-01-19T03:01:51.139Z,99788.94
2023-01-19T03:03:29.366Z,99786.31
2023-01-19T03:05:06.916Z,99794.97
2023-01-19T03:06:38.120Z,99789.75
2023-01-19T03:08:09.435Z,99788.81
2023-01-19T03:09:41.392Z,99802.63
2023-01-19T03:11:07.369Z,99798.34
2023-01-19T03:12:36.704Z,99796.59
2023-01-19T03:14:04.753Z,99792.94
2023-01-19T03:15:33.603Z,99796.38
2023-01-19T03:17:58.339Z,99791.88
2023-01-19T03:19:24.557Z,99795.25
2023-01-19T03:20:48.466Z,99799.66
2023-01-19T03:22:15.702Z,99793.38
2023-01-19T03:23:42.033Z,99801.13
2023-01-19T03:25:04.438Z,99807.97
2023-01-19T03:26:31.619Z,99802.63
2023-01-19T03:27:57.152Z,99805.88
2023-01-19T03:29:25.493Z,99797.84
2023-01-19T03:30:55.535Z,99802.88
2023-01-19T03:32:22.250Z,99796.59
2023-01-19T03:33:48.847Z,99798.09
2023-01-19T03:35:13.542Z,99803.13
2023-01-19T03:36:41.479Z,99805.56
2023-01-19T03:38:10.594Z,99801.94
2023-01-19T03:39:32.541Z,99806.13
2023-01-19T03:40:59.772Z,99799.84
2023-01-19T03:42:26.285Z,99796.28
2023-01-19T03:43:51.334Z,99799.56
2023-01-19T03:45:15.398Z,99802.91
2023-01-19T03:46:38.232Z,99805.31
2023-01-19T03:48:01.138Z,99808.66
2023-01-19T03:49:28.108Z,99813.75
2023-01-19T03:50:52.405Z,99818.78
2023-01-19T03:52:14.232Z,99819.50
2023-01-19T03:53:36.998Z,99820.25
2023-01-19T03:54:59.013Z,99818.38
2023-01-19T03:56:23.442Z,99824.34
2023-01-19T03:57:47.274Z,99817.25
2023-01-19T03:59:08.817Z,99814.63
2023-01-19T04:00:31.803Z,99816.28
2023-01-19T04:01:53.564Z,99821.53
2023-01-19T04:03:17.879Z,99814.63
2023-01-19T04:04:41.131Z,99819.88
2023-01-19T04:06:02.838Z,99822.50
2023-01-19T04:07:25.306Z,99819.03
2023-01-19T04:08:49.681Z,99819.88
2023-01-19T04:10:12.720Z,99819.88
2023-01-19T04:11:35.320Z,99805.81
2023-01-19T04:13:00.032Z,99816.41
2023-01-19T04:14:22.848Z,99819.03
2023-01-19T04:15:44.421Z,99814.63
2023-01-19T04:17:06.972Z,99810.31
2023-01-19T04:18:29.634Z,99816.41
2023-01-19T04:19:53.127Z,99814.63
2023-01-19T04:21:14.675Z,99817.25
2023-01-19T04:22:39.030Z,99823.31
2023-01-19T04:24:01.003Z,99812.75
2023-01-19T04:25:23.482Z,99817.88
2023-01-19T04:26:45.983Z,99810.84
2023-01-19T04:28:09.812Z,99809.91
2023-01-19T04:29:32.313Z,99810.75
2023-01-19T04:30:54.558Z,99808.97
2023-01-19T04:32:17.208Z,99813.38
2023-01-19T04:33:38.744Z,99815.06
2023-01-19T04:35:01.225Z,99810.63
2023-01-19T04:36:23.759Z,99811.50
2023-01-19T04:37:45.599Z,99812.34
2023-01-19T04:39:08.879Z,99808.78
2023-01-19T04:40:32.248Z,99815.69
2023-01-19T04:41:53.847Z,99814.88
2023-01-19T04:43:18.115Z,99813.19
2023-01-19T04:44:40.620Z,99806.16
2023-01-19T04:46:03.081Z,99810.63
2023-01-19T04:47:24.715Z,99808.97
2023-01-19T04:48:47.218Z,99808.13
2023-01-19T04:50:10.883Z,99813.47
2023-01-19T04:51:32.382Z,99812.75
2023-01-19T04:52:54.852Z,99810.19
2023-01-19T04:54:16.512Z,99812.94
2023-01-19T04:55:39.357Z,99809.47
2023-01-19T04:57:00.852Z,99812.94
2023-01-19T04:58:24.633Z,99816.50
2023-01-19T04:59:47.101Z,99816.69
2023-01-19T05:01:10.080Z,99808.09
2023-01-19T05:02:33.603Z,99814.19
2023-01-19T05:04:00.040Z,99810.06
2023-01-19T05:05:24.566Z,99815.41
2023-01-19T05:06:46.217Z,99820.63
2023-01-19T05:08:08.816Z,99815.41
2023-01-19T05:09:31.310Z,99817.28
2023-01-19T05:10:53.802Z,99817.28
2023-01-19T05:12:15.699Z,99813.91
2023-01-19T05:13:39.521Z,99821.03
2023-01-19T05:15:01.730Z,99821.16
2023-01-19T05:16:24.325Z,99818.63
2023-01-19T05:17:46.820Z,99824.78
2023-01-19T05:19:08.330Z,99816.19
2023-01-19T05:20:30.923Z,99823.31
2023-01-19T05:21:54.410Z,99818.38
2023-01-19T05:23:16.892Z,99819.50
2023-01-19T05:24:39.425Z,99829.22
2023-01-19T05:26:03.147Z,99824.28
2023-01-19T05:27:25.672Z,99819.03
2023-01-19T05:28:50.210Z,99826.16
2023-01-19T05:30:13.194Z,99829.91
2023-01-19T05:31:36.016Z,99821.31
2023-01-19T05:32:59.032Z,99826.56
2023-01-19T05:34:21.737Z,99825.72
2023-01-19T05:35:43.265Z,99820.66
2023-01-19T05:37:05.901Z,99827.69
2023-01-19T05:38:35.167Z,99832.91
2023-01-19T05:39:58.237Z,99829.56
2023-01-19T05:41:20.761Z,99822.63
2023-01-19T05:42:43.229Z,99825.44
2023-01-19T05:44:07.139Z,99833.28
2023-01-19T05:45:29.627Z,99838.72
2023-01-19T05:46:52.204Z,99835.34
2023-01-19T05:48:14.914Z,99850.31
2023-01-19T05:49:37.427Z,99840.03
2023-01-19T05:50:59.266Z,99854.97
2023-01-19T05:52:22.254Z,99838.53
2023-01-19T05:53:44.780Z,99850.69
2023-01-19T05:55:07.481Z,99841.88
2023-01-19T05:56:30.132Z,99845.47
2023-01-19T05:57:52.688Z,99846.31
2023-01-19T05:59:21.395Z,99847.13
2023-01-19T06:00:44.132Z,99847.13
2023-01-19T06:02:07.129Z,99845.47
2023-01-19T06:03:29.772Z,99852.56
2023-01-19T06:04:52.278Z,99859.75
2023-01-19T06:06:15.272Z,99849.38
2023-01-19T06:07:37.752Z,99847.81
2023-01-19T06:09:00.271Z,99850.41
2023-01-19T06:10:22.754Z,99858.34
2023-01-19T06:11:45.858Z,99865.47
2023-01-19T06:13:09.633Z,99862.94
2023-01-19T06:14:33.560Z,99862.06
2023-01-19T06:15:59.806Z,99867.31
2023-01-19T06:17:22.452Z,99867.31
2023-01-19T06:18:44.995Z,99865.66
2023-01-19T06:20:07.349Z,99860.41
2023-01-19T06:21:29.925Z,99869.19
2023-01-19T06:22:52.488Z,99853.50
2023-01-19T06:24:14.961Z,99858.72
2023-01-19T06:25:37.437Z,99851.81
2023-01-19T06:27:01.037Z,99852.66
2023-01-19T06:28:23.796Z,99858.66
2023-01-19T06:29:47.647Z,99855.06
2023-01-19T06:31:10.356Z,99860.22
2023-01-19T06:32:32.368Z,99858.34
2023-01-19T06:33:54.980Z,99856.50
2023-01-19T06:35:18.243Z,99858.16
2023-01-19T06:36:40.875Z,99861.44
2023-01-19T06:38:02.378Z,99862.09
2023-01-19T06:39:25.275Z,99872.38
2023-01-19T06:40:53.132Z,99879.28
2023-01-19T06:42:15.660Z,99882.75
2023-01-19T06:43:38.175Z,99882.75
2023-01-19T06:45:02.041Z,99890.69
2023-01-19T06:46:24.721Z,99895.00
2023-01-19T06:47:48.385Z,99892.38
2023-01-19T06:49:10.897Z,99891.47
2023-01-19T06:50:33.507Z,99895.72
2023-01-19T06:51:56.108Z,99899.31
2023-01-19T06:53:20.665Z,99892.38
2023-01-19T06:54:45.410Z,99890.63
2023-01-19T06:56:09.277Z,99900.22
2023-01-19T06:57:31.919Z,99903.69
2023-01-19T06:58:55.157Z,99901.16
2023-01-19T07:00:19.956Z,99900.31
2023-01-19T07:01:42.574Z,99904.69
2023-01-19T07:03:07.424Z,99915.34
2023-01-19T07:04:29.957Z,99912.84
2023-01-19T07:05:53.013Z,99911.28
2023-01-19T07:07:17.515Z,99908.66
2023-01-19T07:08:40.793Z,99905.19
2023-01-19T07:10:03.322Z,99909.47
2023-01-19T07:11:32.626Z,99903.41
2023-01-19T07:12:58.415Z,99920.78
2023-01-19T07:14:21.476Z,99921.63
2023-01-19T07:15:45.339Z,99921.63
2023-01-19T07:17:08.628Z,99919.13
2023-01-19T07:18:31.734Z,99925.16
2023-01-19T07:19:54.227Z,99924.34
2023-01-19T07:21:19.009Z,99931.25
2023-01-19T07:22:41.213Z,99932.94
2023-01-19T07:24:04.122Z,99933.78
2023-01-19T07:25:27.606Z,99934.63
2023-01-19T07:26:50.093Z,99932.03
2023-01-19T07:28:15.542Z,99944.06
2023-01-19T07:29:38.342Z,99942.31
2023-01-19T07:31:02.678Z,99935.38
2023-01-19T07:32:25.361Z,99939.69
2023-01-19T07:33:48.320Z,99947.53
2023-01-19T07:35:11.104Z,99952.66
2023-01-19T07:36:33.641Z,99953.50
2023-01-19T07:37:56.329Z,99943.03
2023-01-19T07:39:18.907Z,99948.28
2023-01-19T07:40:41.440Z,99949.84
2023-01-19T07:42:04.329Z,99953.31
2023-01-19T07:43:26.962Z,99942.84
2023-01-19T07:44:49.932Z,99951.56
2023-01-19T07:46:12.535Z,99946.25
2023-01-19T07:47:16.982Z,99952.22
2023-01-19T07:48:19.506Z,99951.28
2023-01-19T07:49:22.044Z,99951.28
2023-01-19T07:50:27.534Z,99950.44
2023-01-19T07:51:29.144Z,99946.06
2023-01-19T07:52:31.654Z,99956.53
2023-01-19T07:53:33.333Z,99952.13
2023-01-19T07:54:35.865Z,99966.16
2023-01-19T07:55:37.821Z,99960.91
2023-01-19T07:56:40.443Z,99972.31
2023-01-19T07:57:43.024Z,99980.16
2023-01-19T07:58:46.553Z,99979.31
2023-01-19T07:59:48.144Z,99984.53
2023-01-19T08:00:51.054Z,99987.16
2023-01-19T08:01:54.252Z,99987.09
2023-01-19T08:03:01.371Z,99994.00
2023-01-19T08:04:04.171Z,99998.41
2023-01-19T08:05:07.490Z,99994.84
2023-01-19T08:06:20.476Z,99999.16
2023-01-19T08:07:22.186Z,100003.44
2023-01-19T08:08:35.445Z,100005.22
2023-01-19T08:09:37.492Z,100005.13
2023-01-19T08:10:40.065Z,100000.72
2023-01-19T08:11:41.704Z,100004.97
2023-01-19T08:12:44.669Z,100005.78
2023-01-19T08:13:46.276Z,100009.25
2023-01-19T08:14:48.757Z,100008.31
2023-01-19T08:15:51.257Z,100004.78
2023-01-19T08:16:55.267Z,100011.69
2023-01-19T08:18:00.657Z,100012.53
2023-01-19T08:19:03.827Z,100012.53
2023-01-19T08:20:07.892Z,100012.53
2023-01-19T08:21:10.535Z,100014.22
2023-01-19T08:22:13.119Z,100015.91
2023-01-19T08:23:14.679Z,100016.72
2023-01-19T08:24:21.149Z,100028.91
2023-01-19T08:25:24.356Z,100014.88
2023-01-19T08:26:29.200Z,100022.75
2023-01-19T08:27:32.400Z,100020.13
2023-01-19T08:28:35.049Z,100025.16
2023-01-19T08:29:37.997Z,100025.91
2023-01-19T08:30:43.395Z,100031.06
2023-01-19T08:31:46.588Z,100028.34
2023-01-19T08:32:49.566Z,100030.88
2023-01-19T08:33:52.111Z,100031.53
2023-01-19T08:34:54.588Z,100032.19
2023-01-19T08:35:57.238Z,100033.88
2023-01-19T08:37:00.320Z,100034.72
2023-01-19T08:38:01.867Z,100030.97
2023-01-19T08:39:05.092Z,100043.16
2023-01-19T08:40:08.420Z,100038.66
2023-01-19T08:41:10.995Z,100036.88
2023-01-19T08:42:13.495Z,100044.63
2023-01-19T08:43:17.275Z,100042.84
2023-01-19T08:44:19.855Z,100047.16
2023-01-19T08:45:21.506Z,100047.06
2023-01-19T08:46:24.100Z,100048.88
2023-01-19T08:47:26.860Z,100047.91
2023-01-19T08:48:30.384Z,100047.81
2023-01-19T08:49:32.873Z,100057.28
2023-01-19T08:50:35.812Z,100053.72
2023-01-19T08:51:39.039Z,100050.06
2023-01-19T08:52:40.582Z,100049.16
2023-01-19T08:53:44.015Z,100047.38
2023-01-19T08:54:45.572Z,100052.50
2023-01-19T08:55:48.147Z,100057.66
2023-01-19T08:56:50.646Z,100055.78
2023-01-19T08:57:52.774Z,100060.94
2023-01-19T08:59:08.228Z,100055.69
2023-01-19T09:00:13.313Z,100059.06
2023-01-19T09:01:18.563Z,100058.13
2023-01-19T09:02:20.473Z,100057.19
2023-01-19T09:03:23.531Z,100051.94
2023-01-19T09:04:30.754Z,100060.56
2023-01-19T09:05:41.993Z,100065.69
2023-01-19T09:06:44.607Z,100068.22
2023-01-19T09:07:48.229Z,100063.72
2023-01-19T09:08:50.820Z,100075.91
2023-01-19T09:09:52.442Z,100071.50
2023-01-19T09:10:54.983Z,100069.75
2023-01-19T09:11:57.649Z,100072.38
2023-01-19T09:12:59.175Z,100070.66
2023-01-19T09:14:01.965Z,100070.66
2023-01-19T09:15:03.889Z,100067.19
2023-01-19T09:16:07.772Z,100070.47
2023-01-19T09:17:09.328Z,100079.06
2023-01-19T09:18:13.623Z,100073.75
2023-01-19T09:19:16.229Z,100080.56
2023-01-19T09:20:19.375Z,100083.19
2023-01-19T09:21:21.885Z,100072.72
2023-01-19T09:22:23.382Z,100082.28
2023-01-19T09:23:26.316Z,100078.81
2023-01-19T09:24:28.843Z,100085.81
2023-01-19T09:25:30.418Z,100082.34
2023-01-19T09:26:33.328Z,100085.81
2023-01-19T09:27:35.981Z,100082.28
2023-01-19T09:28:38.003Z,100087.50
2023-01-19T09:29:40.816Z,100090.22
2023-01-19T09:30:45.446Z,100086.66
2023-01-19T09:31:48.787Z,100091.06
2023-01-19T09:32:50.342Z,100095.38
2023-01-19T09:33:53.540Z,100091.81
2023-01-19T09:34:56.424Z,100090.88
2023-01-19T09:36:10.612Z,100100.44
2023-01-19T09:37:12.806Z,100099.50
2023-01-19T09:38:16.692Z,100103.06
2023-01-19T09:39:18.321Z,100103.91
2023-01-19T09:40:24.406Z,100108.31
2023-01-19T09:41:27.537Z,100108.31
2023-01-19T09:42:36.745Z,100110.06
2023-01-19T09:43:41.303Z,100118.88
2023-01-19T09:44:46.059Z,100114.56
2023-01-19T09:45:52.132Z,100118.13
2023-01-19T09:46:54.732Z,100129.47
2023-01-19T09:47:59.408Z,100124.22
2023-01-19T09:49:04.916Z,100127.69
2023-01-19T09:50:19.555Z,100118.97
2023-01-19T09:51:25.807Z,100129.47
2023-01-19T09:52:27.804Z,100122.53
2023-01-19T09:53:41.725Z,100124.28
2023-01-19T09:54:52.732Z,100134.88
2023-01-19T09:55:54.375Z,100143.50
2023-01-19T09:56:56.939Z,100134.69
2023-01-19T09:57:58.834Z,100136.38
2023-01-19T09:59:02.516Z,100145.00
2023-01-19T10:00:14.956Z,100132.63
2023-01-19T10:01:38.221Z,100146.50
2023-01-19T10:02:45.077Z,100138.63
2023-01-19T10:03:52.395Z,100144.63
2023-01-19T10:05:00.750Z,100150.72
2023-01-19T10:06:07.169Z,100146.31
2023-01-19T10:07:33.419Z,100149.69
2023-01-19T10:08:41.930Z,100146.13
2023-01-19T10:10:03.832Z,100153.03
2023-01-19T10:11:20.279Z,100156.50
2023-01-19T10:12:33.166Z,100151.19
2023-01-19T10:13:43.390Z,100153.81
2023-01-19T10:14:50.971Z,100155.59
2023-01-19T10:16:02.062Z,100161.66
2023-01-19T10:17:18.114Z,100164.84
2023-01-19T10:18:25.208Z,100157.63
2023-01-19T10:19:30.827Z,100152.31
2023-01-19T10:20:38.066Z,100158.22
2023-01-19T10:21:43.448Z,100151.00
2023-01-19T10:22:51.409Z,100163.06
2023-01-19T10:24:08.566Z,100162.88
2023-01-19T10:25:15.991Z,100161.94
2023-01-19T10:26:22.911Z,100157.63
2023-01-19T10:27:29.676Z,100163.72
2023-01-19T10:28:32.075Z,100155.94
2023-01-19T10:29:37.509Z,100165.59
2023-01-19T10:30:42.761Z,100167.28
2023-01-19T10:31:47.189Z,100168.22
2023-01-19T10:32:50.300Z,100171.69
2023-01-19T10:33:54.103Z,100174.31
2023-01-19T10:34:58.305Z,100175.22
2023-01-19T10:36:03.006Z,100167.28
2023-01-19T10:37:14.177Z,100173.38
2023-01-19T10:38:21.997Z,100177.78
2023-01-19T10:39:24.788Z,100171.69
2023-01-19T10:40:34.078Z,100168.97
2023-01-19T10:41:42.731Z,100173.25
2023-01-19T10:42:44.285Z,100174.03
2023-01-19T10:43:47.978Z,100164.38
2023-01-19T10:44:52.544Z,100167.75
2023-01-19T10:45:54.096Z,100174.69
2023-01-19T10:46:58.255Z,100168.41
2023-01-19T10:48:05.915Z,100173.44
2023-01-19T10:49:24.071Z,100166.31
2023-01-19T10:50:29.574Z,100162.75
2023-01-19T10:51:32.215Z,100167.09
2023-01-19T10:52:36.635Z,100161.84
2023-01-19T10:53:43.752Z,100162.56
2023-01-19T10:54:48.512Z,100161.53
2023-01-19T10:56:12.242Z,100164.06
2023-01-19T10:57:26.521Z,100163.16
2023-01-19T10:58:32.024Z,100163.78
2023-01-19T10:59:37.481Z,100162.75
2023-01-19T11:00:44.159Z,100159.94
2023-01-19T11:02:04.888Z,100155.13
2023-01-19T11:03:24.060Z,100160.00
2023-01-19T11:04:28.840Z,100152.75
2023-01-19T11:05:33.568Z,100155.09
2023-01-19T11:06:36.085Z,100168.13
2023-01-19T11:07:48.600Z,100164.44
2023-01-19T11:08:53.082Z,100157.41
2023-01-19T11:10:21.031Z,100163.53
2023-01-19T11:11:25.582Z,100159.31
2023-01-19T11:12:28.139Z,100171.59
2023-01-19T11:13:30.496Z,100163.72
2023-01-19T11:14:33.401Z,100164.75
2023-01-19T11:15:42.128Z,100164.56
2023-01-19T11:16:48.400Z,100156.69
2023-01-19T11:17:52.661Z,100161.94
2023-01-19T11:18:56.511Z,100162.88
2023-01-19T11:20:01.380Z,100168.13
2023-01-19T11:21:07.508Z,100163.81
2023-01-19T11:22:21.551Z,100165.50
2023-01-19T11:23:27.120Z,100169.06
2023-01-19T11:24:31.211Z,100164.66
2023-01-19T11:25:35.477Z,100168.97
2023-01-19T11:26:42.903Z,100169.63
2023-01-19T11:27:51.444Z,100166.78
2023-01-19T11:28:56.028Z,100171.84
2023-01-19T11:30:09.562Z,100168.28
2023-01-19T11:31:32.921Z,100173.53
2023-01-19T11:32:36.950Z,100171.00
2023-01-19T11:33:42.851Z,100169.22
2023-01-19T11:34:45.541Z,100167.44
2023-01-19T11:35:47.231Z,100173.53
2023-01-19T11:36:57.420Z,100167.44
2023-01-19T11:38:07.638Z,100171.75
2023-01-19T11:39:28.081Z,100167.31
2023-01-19T11:40:31.631Z,100168.09
2023-01-19T11:41:36.443Z,100171.44
2023-01-19T11:42:40.966Z,100167.88
2023-01-19T11:43:49.008Z,100177.34
2023-01-19T11:44:59.784Z,100164.94
2023-01-19T11:46:03.652Z,100177.06
2023-01-19T11:47:14.494Z,100169.81
2023-01-19T11:48:25.960Z,100174.88
2023-01-19T11:49:41.457Z,100169.50
2023-01-19T11:50:44.732Z,100178.16
2023-01-19T11:51:53.399Z,100171.94
2023-01-19T11:53:02.616Z,100174.47
2023-01-19T11:54:16.476Z,100168.25
2023-01-19T11:55:33.821Z,100171.72
2023-01-19T11:56:38.826Z,100172.56
2023-01-19T11:57:46.699Z,100171.53
2023-01-19T11:58:49.319Z,100169.00
2023-01-19T11:59:51.870Z,100175.13
2023-01-19T12:00:59.844Z,100169.84
2023-01-19T12:02:19.106Z,100171.53
2023-01-19T12:03:30.475Z,100171.53
2023-01-19T12:04:37.642Z,100171.53
2023-01-19T12:05:43.997Z,100169.84
2023-01-19T12:06:53.940Z,100164.81
2023-01-19T12:07:59.278Z,100168.38
2023-01-19T12:09:07.400Z,100169.31
2023-01-19T12:10:22.273Z,100168.38
2023-01-19T12:11:31.693Z,100164.03
2023-01-19T12:12:40.517Z,100171.72
2023-01-19T12:13:44.143Z,100168.16
2023-01-19T12:14:55.767Z,100162.81
2023-01-19T12:16:05.214Z,100171.53
2023-01-19T12:17:13.688Z,100176.78
2023-01-19T12:18:22.849Z,100169.75
2023-01-19T12:19:31.174Z,100170.59
2023-01-19T12:20:38.710Z,100169.66
2023-01-19T12:21:42.508Z,100172.09
2023-01-19T12:22:50.722Z,100167.56
2023-01-19T12:24:04.898Z,100167.34
2023-01-19T12:25:19.508Z,100171.59
2023-01-19T12:26:36.544Z,100170.53
2023-01-19T12:27:43.284Z,100170.31
2023-01-19T12:28:49.439Z,100169.41
2023-01-19T12:29:55.130Z,100164.75
2023-01-19T12:30:59.052Z,100168.00
2023-01-19T12:32:19.790Z,100174.75
2023-01-19T12:33:22.996Z,100174.56
2023-01-19T12:34:32.315Z,100176.03
2023-01-19T12:35:58.067Z,100183.72
2023-01-19T12:37:04.582Z,100175.63
2023-01-19T12:38:34.714Z,100174.59
2023-01-19T12:39:49.578Z,100171.16
2023-01-19T12:41:17.296Z,100178.25
2023-01-19T12:42:21.351Z,100179.19
2023-01-19T12:43:25.485Z,100173.94
2023-01-19T12:44:34.478Z,100184.44
2023-01-19T12:45:39.668Z,100182.78
2023-01-19T12:46:42.881Z,100165.31
2023-01-19T12:47:52.996Z,100180.25
2023-01-19T12:48:55.925Z,100182.13
2023-01-19T12:50:06.752Z,100184.84
2023-01-19T12:51:10.110Z,100179.81
2023-01-19T12:52:34.213Z,100179.94
2023-01-19T12:53:38.585Z,100182.66
2023-01-19T12:54:43.859Z,100178.16
2023-01-19T12:55:47.478Z,100185.19
2023-01-19T12:56:49.615Z,100185.91
2023-01-19T12:58:00.498Z,100187.59
2023-01-19T12:59:05.628Z,100178.03
2023-01-19T13:00:30.116Z,100193.91
2023-01-19T13:01:43.896Z,100189.69
2023-01-19T13:02:47.345Z,100187.16
2023-01-19T13:04:27.873Z,100178.31
2023-01-19T13:05:53.578Z,100184.63
2023-01-19T13:07:18.034Z,100188.09
2023-01-19T13:08:26.818Z,100182.97
2023-01-19T13:09:30.718Z,100180.44
2023-01-19T13:11:19.543Z,100193.66
2023-01-19T13:12:26.490Z,100192.00
2023-01-19T13:13:29.694Z,100187.78
2023-01-19T13:14:38.695Z,100191.34
2023-01-19T13:15:40.365Z,100189.66
2023-01-19T13:16:58.855Z,100192.28
2023-01-19T13:18:02.441Z,100191.34
2023-01-19T13:19:17.347Z,100186.81
2023-01-19T13:20:27.073Z,100192.06
2023-01-19T13:21:31.054Z,100182.31
2023-01-19T13:23:14.371Z,100187.59
2023-01-19T13:24:20.801Z,100186.63
2023-01-19T13:25:29.727Z,100190.94
2023-01-19T13:26:34.995Z,100190.09
2023-01-19T13:27:38.117Z,100187.38
2023-01-19T13:28:43.401Z,100190.94
2023-01-19T13:29:46.394Z,100187.38
2023-01-19T13:31:00.284Z,100189.88
2023-01-19T13:32:05.864Z,100184.63
2023-01-19T13:33:17.648Z,100185.38
2023-01-19T13:34:23.704Z,100188.75
2023-01-19T13:35:25.488Z,100184.22
2023-01-19T13:36:31.417Z,100186.75
2023-01-19T13:37:37.198Z,100185.06
2023-01-19T13:38:43.010Z,100186.75
2023-01-19T13:39:46.391Z,100190.13
2023-01-19T13:40:49.380Z,100184.84
2023-01-19T13:41:55.292Z,100184.00
2023-01-19T13:42:57.494Z,100182.34
2023-01-19T13:44:03.847Z,100186.75
2023-01-19T13:45:21.409Z,100189.28
2023-01-19T13:46:26.218Z,100188.34
2023-01-19T13:47:37.837Z,100189.09
2023-01-19T13:48:41.081Z,100193.28
2023-01-19T13:49:48.467Z,100200.97
2023-01-19T13:50:59.635Z,100198.16
2023-01-19T13:52:13.626Z,100189.22
2023-01-19T13:53:18.840Z,100195.13
2023-01-19T13:54:21.388Z,100196.69
2023-01-19T13:55:24.954Z,100195.84
2023-01-19T13:56:28.794Z,100208.91
2023-01-19T13:57:32.655Z,100201.03
2023-01-19T13:58:35.356Z,100204.72
2023-01-19T13:59:37.885Z,100203.94
2023-01-19T14:00:46.934Z,100205.75
2023-01-19T14:01:51.119Z,100216.38
2023-01-19T14:02:57.121Z,100205.00
2023-01-19T14:04:00.351Z,100211.19
2023-01-19T14:05:15.124Z,100209.41
2023-01-19T14:06:24.174Z,100205.94
2023-01-19T14:07:27.069Z,100215.44
2023-01-19T14:08:31.119Z,100208.47
2023-01-19T14:09:32.810Z,100212.81
2023-01-19T14:10:36.899Z,100211.84
2023-01-19T14:11:38.520Z,100214.38
2023-01-19T14:12:54.467Z,100216.06
2023-01-19T14:14:00.917Z,100219.44
2023-01-19T14:15:05.187Z,100214.09
2023-01-19T14:16:15.975Z,100225.34
2023-01-19T14:17:22.890Z,100225.34
2023-01-19T14:18:30.046Z,100223.44
2023-01-19T14:19:51.006Z,100227.03
2023-01-19T14:20:56.407Z,100221.00
2023-01-19T14:22:01.230Z,100232.50
2023-01-19T14:23:04.107Z,100226.47
2023-01-19T14:24:19.134Z,100222.16
2023-01-19T14:25:28.911Z,100227.41
2023-01-19T14:26:46.657Z,100226.38
2023-01-19T14:27:49.557Z,100228.16
2023-01-19T14:28:52.267Z,100225.63
2023-01-19T14:29:54.915Z,100232.66
2023-01-19T14:31:00.637Z,100234.56
2023-01-19T14:32:16.363Z,100236.25